Time;durP1;ratioP1;P1;durP2;ratioP2;P2;SDS_P1;SDS_P2;PMS_P1;PMS_P2;Temp;Humidity;BMP_temperature;BMP_pressure;BME280_temperature;BME280_humidity;BME280_pressure;Samples;Min_cycle;Max_cycle;Signal;HPM_P1;HPM_P2
2023/05/25 00:01:06;;;;;;;4.70;4.03;;;;;;;12.08;53.66;96505.81;5010488;28;20560;-69
2023/05/25 00:03:32;;;;;;;10.00;4.43;;;;;;;11.98;53.31;96497.50;5010054;28;20172;-71
2023/05/25 00:06:00;;;;;;;13.00;5.20;;;;;;;11.93;53.45;96502.13;5010285;28;20649;-71
2023/05/25 00:08:25;;;;;;;7.13;4.90;;;;;;;11.90;52.78;96498.78;5010423;28;20192;-68
2023/05/25 00:10:51;;;;;;;7.43;4.27;;;;;;;11.60;53.58;96501.91;5009060;28;20416;-69
2023/05/25 00:13:16;;;;;;;10.70;4.83;;;;;;;11.78;53.01;96501.03;5010323;28;20168;-70
2023/05/25 00:15:42;;;;;;;10.70;5.60;;;;;;;11.70;53.38;96499.72;5009859;28;20218;-69
2023/05/25 00:18:07;;;;;;;6.70;4.43;;;;;;;11.66;53.89;96501.63;5010135;28;20180;-70
2023/05/25 00:20:33;;;;;;;5.97;4.67;;;;;;;11.73;53.82;96499.56;5010026;28;20841;-70
2023/05/25 00:23:01;;;;;;;10.13;4.70;;;;;;;11.51;54.22;96502.34;5009926;28;20180;-70
2023/05/25 00:25:26;;;;;;;10.60;4.60;;;;;;;11.29;54.78;96497.19;5009675;28;20196;-71
2023/05/25 00:27:52;;;;;;;7.43;4.40;;;;;;;11.25;54.89;96493.00;5009912;28;20491;-70
2023/05/25 00:30:17;;;;;;;5.83;4.67;;;;;;;11.33;54.27;96483.00;5010133;28;20181;-70
2023/05/25 00:32:43;;;;;;;9.00;5.47;;;;;;;11.18;55.27;96488.03;5009812;28;20252;-70
2023/05/25 00:35:08;;;;;;;7.20;5.07;;;;;;;11.25;54.81;96483.34;5009601;28;20666;-68
2023/05/25 00:37:34;;;;;;;8.67;5.57;;;;;;;11.26;54.88;96477.16;5009500;28;20243;-67
2023/05/25 00:39:59;;;;;;;7.67;4.80;;;;;;;11.23;55.40;96483.41;5009610;28;20718;-70
2023/05/25 00:42:26;;;;;;;11.23;4.60;;;;;;;11.23;55.10;96482.56;5010360;28;20188;-71
2023/05/25 00:44:52;;;;;;;7.77;5.17;;;;;;;11.04;55.37;96481.69;5011222;28;20591;-69
2023/05/25 00:47:18;;;;;;;10.60;4.80;;;;;;;11.04;55.67;96477.28;5011911;28;20521;-71
2023/05/25 00:49:44;;;;;;;7.27;3.60;;;;;;;11.18;54.82;96481.94;5023685;28;20322;-69
2023/05/25 00:52:11;;;;;;;9.10;4.67;;;;;;;11.22;54.46;96481.72;5031550;28;20172;-70
2023/05/25 00:54:37;;;;;;;10.17;5.90;;;;;;;11.04;55.40;96479.91;5030355;28;20186;-69
2023/05/25 00:57:05;;;;;;;9.53;4.80;;;;;;;11.18;54.68;96487.19;5029246;28;20465;-68
2023/05/25 00:59:34;;;;;;;15.70;5.37;;;;;;;11.11;54.16;96470.84;5029183;28;20552;-67
2023/05/25 01:02:05;;;;;;;9.50;4.93;;;;;;;10.94;54.79;96468.97;5029133;28;20417;-70
2023/05/25 01:04:33;;;;;;;8.07;5.00;;;;;;;11.03;54.93;96478.19;5028818;28;20406;-69
2023/05/25 01:07:00;;;;;;;9.47;5.37;;;;;;;10.97;55.33;96476.69;5028959;28;20441;-68
2023/05/25 01:09:27;;;;;;;6.50;5.80;;;;;;;10.92;55.04;96477.84;5029102;28;20423;-70
2023/05/25 01:11:55;;;;;;;9.03;4.80;;;;;;;10.96;55.40;96476.75;5027881;28;21152;-70
2023/05/25 01:14:21;;;;;;;9.93;5.50;;;;;;;11.17;54.48;96477.56;5028410;28;20418;-71
2023/05/25 01:16:47;;;;;;;9.43;5.77;;;;;;;11.12;54.62;96463.81;5028593;28;20850;-67
2023/05/25 01:19:13;;;;;;;10.17;5.17;;;;;;;11.04;54.67;96471.19;5028653;28;20406;-68
2023/05/25 01:21:44;;;;;;;13.80;5.30;;;;;;;11.21;54.38;96481.78;5028564;28;20409;-69
2023/05/25 01:24:21;;;;;;;5.43;3.50;;;;;;;11.22;54.55;96470.38;5028355;28;20199;-71
2023/05/25 01:26:54;;;;;;;8.27;5.70;;;;;;;11.21;54.24;96471.28;5028639;28;20429;-71
2023/05/25 01:29:22;;;;;;;9.93;4.80;;;;;;;11.13;54.58;96466.38;5028661;28;20836;-71
2023/05/25 01:31:49;;;;;;;10.40;4.97;;;;;;;11.08;54.83;96478.88;5028293;28;20441;-69
2023/05/25 01:34:15;;;;;;;9.50;4.80;;;;;;;11.19;54.78;96479.22;5028167;28;20424;-70
2023/05/25 01:36:41;;;;;;;15.40;5.00;;;;;;;11.05;55.38;96478.97;5028475;28;20971;-69
2023/05/25 01:39:06;;;;;;;8.37;5.00;;;;;;;10.88;55.63;96484.13;5028385;28;20480;-71
2023/05/25 01:41:32;;;;;;;8.67;5.50;;;;;;;10.94;55.76;96487.34;5028407;28;20176;-69
2023/05/25 01:43:57;;;;;;;13.43;5.67;;;;;;;10.92;55.93;96486.56;5027839;28;20280;-71
2023/05/25 01:46:36;;;;;;;8.97;5.00;;;;;;;10.90;55.82;96487.53;5028390;28;20198;-69
2023/05/25 01:49:17;;;;;;;12.80;4.90;;;;;;;11.12;55.73;96490.91;5021819;28;20178;-71
2023/05/25 01:51:43;;;;;;;9.17;4.90;;;;;;;11.09;56.04;96488.44;5008656;28;20909;-69
2023/05/25 01:54:16;;;;;;;8.67;5.20;;;;;;;11.03;55.89;96493.94;5007951;28;20576;-69
2023/05/25 01:56:45;;;;;;;10.37;5.60;;;;;;;10.95;56.46;96494.28;5008385;28;20204;-68
2023/05/25 01:59:13;;;;;;;10.70;5.20;;;;;;;10.99;56.55;96493.25;5008439;28;20848;-68
2023/05/25 02:01:40;;;;;;;9.47;4.97;;;;;;;10.99;56.14;96498.50;5009292;28;20971;-71
2023/05/25 02:04:06;;;;;;;13.13;5.07;;;;;;;10.79;56.91;96499.38;5008917;28;20423;-69
2023/05/25 02:06:31;;;;;;;7.70;6.33;;;;;;;10.89;56.96;96493.69;5008932;28;20766;-70
2023/05/25 02:08:57;;;;;;;12.23;5.60;;;;;;;10.97;56.89;96499.50;5009133;28;20175;-70
2023/05/25 02:11:22;;;;;;;11.77;5.63;;;;;;;10.95;56.67;96488.19;5009230;28;20175;-69
2023/05/25 02:13:48;;;;;;;8.00;5.63;;;;;;;10.86;57.41;96480.72;5009309;28;20199;-70
2023/05/25 02:16:13;;;;;;;11.63;5.70;;;;;;;10.99;56.84;96489.78;5008233;28;20208;-67
2023/05/25 02:18:38;;;;;;;8.33;5.63;;;;;;;10.80;57.21;96480.06;5008364;28;20176;-68
2023/05/25 02:21:04;;;;;;;9.13;5.10;;;;;;;10.83;57.59;96475.59;5008486;28;20665;-70
2023/05/25 02:23:30;;;;;;;10.57;5.50;;;;;;;10.81;57.87;96470.41;5008156;28;20168;-65
2023/05/25 02:25:55;;;;;;;9.30;4.90;;;;;;;10.81;57.89;96475.66;5008208;28;20204;-70
2023/05/25 02:28:20;;;;;;;11.77;5.57;;;;;;;10.87;58.08;96478.03;5008035;28;20168;-69
2023/05/25 02:30:46;;;;;;;9.33;5.60;;;;;;;10.90;57.69;96469.16;5008109;28;20173;-69
2023/05/25 02:33:12;;;;;;;10.30;6.23;;;;;;;10.80;58.10;96466.94;5007572;28;20172;-70
2023/05/25 02:35:38;;;;;;;7.53;5.20;;;;;;;10.84;57.76;96465.03;5007802;28;20752;-70
2023/05/25 02:38:03;;;;;;;11.17;5.60;;;;;;;10.96;57.79;96468.88;5007927;28;20462;-68
2023/05/25 02:40:29;;;;;;;10.87;6.23;;;;;;;10.91;57.86;96473.47;5007641;28;20535;-70
2023/05/25 02:42:54;;;;;;;10.47;5.90;;;;;;;11.02;57.70;96479.13;5007801;28;20555;-70
2023/05/25 02:45:19;;;;;;;11.67;6.20;;;;;;;11.14;57.33;96488.22;5007234;28;20258;-70
2023/05/25 02:47:45;;;;;;;6.93;6.00;;;;;;;11.09;57.41;96484.97;5007574;28;20184;-69
2023/05/25 02:50:10;;;;;;;13.07;6.10;;;;;;;11.05;57.75;96484.22;5022834;28;20186;-69
2023/05/25 02:52:36;;;;;;;12.70;6.20;;;;;;;11.09;57.60;96484.97;5026994;28;20721;-69
2023/05/25 02:55:02;;;;;;;12.63;5.63;;;;;;;11.07;57.54;96482.38;5026627;28;20183;-70
2023/05/25 02:57:28;;;;;;;13.27;7.00;;;;;;;11.02;58.08;96482.59;5026900;28;20286;-70
2023/05/25 02:59:53;;;;;;;9.90;5.27;;;;;;;10.92;58.45;96473.44;5027019;28;20581;-69
2023/05/25 03:02:19;;;;;;;13.40;6.40;;;;;;;10.84;58.73;96472.06;5027057;28;20463;-70
2023/05/25 03:04:45;;;;;;;11.73;7.60;;;;;;;10.68;59.15;96470.09;5026673;28;20596;-69
2023/05/25 03:07:11;;;;;;;9.37;5.60;;;;;;;10.71;59.49;96479.63;5026861;28;20485;-69
2023/05/25 03:09:38;;;;;;;8.93;6.30;;;;;;;10.64;59.63;96483.44;5026898;28;20414;-69
2023/05/25 03:12:03;;;;;;;9.90;6.43;;;;;;;10.48;59.90;96473.56;5026949;28;20449;-68
2023/05/25 03:14:29;;;;;;;11.90;6.50;;;;;;;10.57;60.06;96485.44;5026764;28;20442;-69
2023/05/25 03:16:54;;;;;;;13.30;5.97;;;;;;;10.60;60.15;96486.16;5026639;28;20215;-69
2023/05/25 03:19:20;;;;;;;10.00;6.50;;;;;;;10.61;60.39;96487.03;5026805;28;20260;-69
2023/05/25 03:21:46;;;;;;;12.03;6.60;;;;;;;10.57;60.25;96490.69;5026832;28;20183;-69
2023/05/25 03:24:12;;;;;;;10.77;6.47;;;;;;;10.55;60.82;96495.16;5026369;28;20259;-70
2023/05/25 03:26:37;;;;;;;10.33;5.93;;;;;;;10.47;61.15;96487.63;5026642;28;20430;-69
2023/05/25 03:29:05;;;;;;;13.43;5.90;;;;;;;10.44;61.15;96489.50;5026816;28;20713;-69
2023/05/25 03:31:31;;;;;;;10.93;5.77;;;;;;;10.45;61.65;96485.97;5026763;28;20589;-70
2023/05/25 03:33:56;;;;;;;13.27;6.77;;;;;;;10.47;60.94;96490.25;5026382;28;20414;-70
2023/05/25 03:36:21;;;;;;;13.53;6.67;;;;;;;10.38;61.15;96493.25;5026404;28;20868;-69
2023/05/25 03:38:47;;;;;;;14.47;6.50;;;;;;;10.43;61.71;96496.53;5026769;28;20179;-69
2023/05/25 03:41:12;;;;;;;14.33;7.20;;;;;;;10.43;61.63;96493.06;5026864;28;20182;-68
2023/05/25 03:43:37;;;;;;;15.07;6.70;;;;;;;10.31;62.18;96492.63;5026758;28;20275;-69
2023/05/25 03:46:03;;;;;;;13.97;8.07;;;;;;;10.23;62.44;96493.81;5030649;28;20211;-69
2023/05/25 03:48:28;;;;;;;13.07;6.60;;;;;;;10.33;62.25;96490.81;5028491;28;20175;-68
2023/05/25 03:50:54;;;;;;;12.47;6.87;;;;;;;10.53;61.59;96497.84;5010941;28;20180;-69
2023/05/25 03:53:19;;;;;;;11.77;6.50;;;;;;;10.44;61.74;96503.50;5010314;28;20183;-69
2023/05/25 03:55:45;;;;;;;22.83;9.13;;;;;;;10.57;61.91;96502.03;5010060;28;20219;-70
2023/05/25 03:58:10;;;;;;;11.37;6.40;;;;;;;10.50;61.60;96500.59;5010240;28;20203;-69
2023/05/25 04:00:36;;;;;;;13.67;7.40;;;;;;;10.48;61.86;96501.56;5010280;28;20176;-69
2023/05/25 04:03:03;;;;;;;10.50;7.67;;;;;;;10.56;61.82;96510.84;5010030;28;20208;-69
2023/05/25 04:05:28;;;;;;;9.00;6.97;;;;;;;10.60;61.90;96512.41;5009834;28;20196;-69
2023/05/25 04:07:54;;;;;;;18.70;6.83;;;;;;;10.57;62.16;96514.31;5010662;28;20403;-69
2023/05/25 04:10:20;;;;;;;10.07;6.20;;;;;;;10.72;61.42;96508.41;5010504;28;20271;-69
2023/05/25 04:12:45;;;;;;;11.97;7.80;;;;;;;10.86;60.95;96510.44;5010361;28;20176;-70
2023/05/25 04:15:13;;;;;;;12.57;7.03;;;;;;;10.77;61.61;96516.97;5010194;28;20659;-68
2023/05/25 04:17:39;;;;;;;11.60;6.30;;;;;;;10.72;61.96;96515.44;5011005;28;20219;-69
2023/05/25 04:20:07;;;;;;;11.57;6.60;;;;;;;10.99;61.09;96510.78;5010722;28;20439;-69
2023/05/25 04:22:33;;;;;;;13.13;7.20;;;;;;;10.98;60.91;96504.69;5010167;28;20411;-70
2023/05/25 04:24:58;;;;;;;15.10;7.37;;;;;;;10.91;61.69;96515.50;5009428;28;20411;-69
2023/05/25 04:27:25;;;;;;;12.87;6.97;;;;;;;10.75;61.70;96513.53;5009820;28;20172;-71
2023/05/25 04:29:52;;;;;;;15.30;7.23;;;;;;;10.67;62.39;96517.41;5009766;28;20210;-70
2023/05/25 04:32:18;;;;;;;11.70;6.77;;;;;;;10.62;62.77;96522.00;5009537;28;20971;-69
2023/05/25 04:34:45;;;;;;;13.57;7.40;;;;;;;10.71;62.42;96524.25;5015217;28;20422;-70
2023/05/25 04:37:11;;;;;;;12.60;7.53;;;;;;;10.63;62.49;96529.81;5038636;28;20292;-69
2023/05/25 04:39:36;;;;;;;13.17;8.20;;;;;;;10.51;63.21;96527.69;5029090;28;20426;-69
2023/05/25 04:42:03;;;;;;;19.97;7.30;;;;;;;10.44;63.81;96534.09;5029963;28;20233;-69
2023/05/25 04:44:31;;;;;;;14.30;7.40;;;;;;;10.51;63.66;96525.06;5027982;28;20195;-70
2023/05/25 04:47:01;;;;;;;14.83;7.10;;;;;;;10.52;63.49;96524.16;5028719;28;20434;-69
2023/05/25 04:49:30;;;;;;;23.03;7.93;;;;;;;10.54;63.74;96524.94;5028914;28;20564;-69
2023/05/25 04:51:55;;;;;;;12.40;7.03;;;;;;;10.61;63.82;96526.41;5029070;28;20536;-69
2023/05/25 04:54:21;;;;;;;17.83;8.23;;;;;;;10.67;63.46;96517.41;5028828;28;20445;-69
2023/05/25 04:56:46;;;;;;;9.30;8.10;;;;;;;10.58;64.03;96516.00;5028302;28;20702;-69
2023/05/25 04:59:12;;;;;;;9.63;7.10;;;;;;;10.41;64.17;96515.88;5028770;28;20621;-69
2023/05/25 05:01:39;;;;;;;14.43;7.80;;;;;;;10.65;64.02;96506.97;5026101;28;20172;-69
2023/05/25 05:04:06;;;;;;;11.77;7.33;;;;;;;10.81;63.64;96510.63;5026245;28;20675;-68
2023/05/25 05:06:33;;;;;;;11.17;7.93;;;;;;;10.90;63.55;96501.53;5026004;28;20429;-69
2023/05/25 05:08:59;;;;;;;16.10;7.83;;;;;;;10.89;63.34;96493.69;5025585;28;20426;-69
2023/05/25 05:11:24;;;;;;;17.07;11.37;;;;;;;10.98;63.11;96498.56;5020003;28;20575;-70
2023/05/25 05:13:50;;;;;;;11.03;7.67;;;;;;;10.70;64.13;96515.50;5025687;28;21340;-70
2023/05/25 05:16:15;;;;;;;19.87;9.40;;;;;;;10.69;64.69;96512.94;5024893;28;20199;-69
2023/05/25 05:18:41;;;;;;;18.47;10.07;;;;;;;10.70;64.55;96512.88;5025508;28;20207;-69
2023/05/25 05:21:06;;;;;;;16.47;8.33;;;;;;;10.78;64.33;96517.81;5024454;28;20595;-68
2023/05/25 05:23:33;;;;;;;16.10;7.03;;;;;;;10.57;64.92;96516.94;5022992;28;20262;-67
2023/05/25 05:25:59;;;;;;;18.13;9.17;;;;;;;10.59;65.02;96531.69;5023867;28;20210;-71
2023/05/25 05:28:26;;;;;;;9.90;8.90;;;;;;;10.74;65.04;96537.22;5021312;28;20433;-70
2023/05/25 05:30:52;;;;;;;12.17;8.60;;;;;;;10.59;65.28;96546.59;5017212;28;20898;-68
2023/05/25 05:33:18;;;;;;;19.03;9.20;;;;;;;10.65;65.55;96542.84;5024220;28;20429;-71
2023/05/25 05:35:43;;;;;;;14.57;8.33;;;;;;;10.80;64.92;96540.44;5024925;28;20446;-70
2023/05/25 05:38:09;;;;;;;15.53;8.57;;;;;;;10.99;64.48;96531.78;5024759;28;20195;-69
2023/05/25 05:40:35;;;;;;;20.03;9.20;;;;;;;10.99;65.29;96539.66;5025198;28;20184;-67
2023/05/25 05:43:00;;;;;;;18.37;9.30;;;;;;;11.14;64.19;96530.25;5024445;28;20433;-68
2023/05/25 05:45:26;;;;;;;12.23;8.10;;;;;;;11.21;63.91;96545.66;5023817;28;20203;-71
2023/05/25 05:47:51;;;;;;;13.70;7.77;;;;;;;11.09;65.18;96538.34;5024969;28;20178;-67
2023/05/25 05:50:17;;;;;;;17.67;9.40;;;;;;;11.19;64.66;96537.00;5024968;28;20252;-69
2023/05/25 05:52:42;;;;;;;11.90;8.60;;;;;;;11.19;64.73;96542.25;5026873;28;20922;-66
2023/05/25 05:55:08;;;;;;;12.33;8.67;;;;;;;11.39;64.65;96543.16;5023831;28;20191;-69
2023/05/25 05:57:33;;;;;;;17.80;9.73;;;;;;;11.26;64.64;96542.00;5024663;28;20305;-67
2023/05/25 05:59:59;;;;;;;20.23;9.90;;;;;;;11.33;64.91;96535.53;5026251;28;20184;-71
2023/05/25 06:02:25;;;;;;;17.17;8.70;;;;;;;11.35;65.14;96538.97;5025478;28;20186;-68
2023/05/25 06:04:50;;;;;;;15.43;9.47;;;;;;;11.05;65.64;96554.28;5026595;28;20171;-67
2023/05/25 06:07:16;;;;;;;13.03;8.77;;;;;;;11.00;66.38;96554.47;5024795;28;20195;-67
2023/05/25 06:09:41;;;;;;;15.23;9.20;;;;;;;11.25;65.82;96556.06;5026714;28;20180;-66
2023/05/25 06:12:07;;;;;;;10.93;8.90;;;;;;;11.25;65.69;96550.81;5027010;28;20178;-66
2023/05/25 06:14:32;;;;;;;15.03;9.30;;;;;;;11.43;65.04;96547.34;5027164;28;20171;-68
2023/05/25 06:16:58;;;;;;;13.70;9.20;;;;;;;11.60;64.05;96555.34;5035315;28;20501;-70
2023/05/25 06:19:23;;;;;;;18.83;9.07;;;;;;;11.50;65.15;96561.91;5040289;28;20172;-67
2023/05/25 06:21:49;;;;;;;21.70;8.03;;;;;;;11.66;64.21;96560.28;5046763;28;20160;-69
2023/05/25 06:24:14;;;;;;;12.00;10.17;;;;;;;11.48;64.80;96555.00;5036470;28;20172;-67
2023/05/25 06:26:40;;;;;;;13.47;9.30;;;;;;;11.45;65.17;96561.25;5022438;28;20219;-67
2023/05/25 06:29:06;;;;;;;12.63;9.07;;;;;;;11.54;64.96;96555.59;5006025;28;20168;-69
2023/05/25 06:31:31;;;;;;;14.87;9.03;;;;;;;11.93;64.01;96556.50;5018974;28;20182;-68
2023/05/25 06:33:57;;;;;;;15.80;9.83;;;;;;;12.17;63.69;96559.75;5026504;28;20179;-68
2023/05/25 06:36:22;;;;;;;13.63;8.90;;;;;;;12.64;62.16;96556.59;5026198;28;20225;-67
2023/05/25 06:38:47;;;;;;;19.07;10.87;;;;;;;12.89;61.83;96562.31;5029271;28;20171;-68
2023/05/25 06:41:14;;;;;;;12.27;9.73;;;;;;;12.70;62.77;96556.28;5027424;28;20183;-69
2023/05/25 06:43:41;;;;;;;14.53;10.40;;;;;;;12.55;63.69;96559.69;5029193;28;20234;-69
2023/05/25 06:46:09;;;;;;;16.00;9.60;;;;;;;12.93;62.56;96561.25;5028770;28;20454;-68
2023/05/25 06:48:34;;;;;;;13.60;9.77;;;;;;;12.69;62.91;96559.84;5026327;28;20421;-70
2023/05/25 06:51:00;;;;;;;15.63;9.40;;;;;;;12.75;63.58;96574.47;5009401;28;20424;-68
2023/05/25 06:53:25;;;;;;;13.70;10.27;;;;;;;12.97;62.47;96567.22;5007598;28;20250;-68
2023/05/25 06:55:50;;;;;;;20.20;10.20;;;;;;;12.91;63.06;96563.09;5006904;28;20196;-68
2023/05/25 06:58:16;;;;;;;17.23;10.17;;;;;;;12.97;63.65;96567.22;5007352;28;20195;-67
2023/05/25 07:00:41;;;;;;;19.40;10.30;;;;;;;12.96;63.73;96572.56;5023695;28;20188;-68
2023/05/25 07:03:07;;;;;;;12.60;10.50;;;;;;;12.95;63.42;96568.22;5021760;28;20900;-68
2023/05/25 07:05:32;;;;;;;11.27;9.33;;;;;;;13.20;63.04;96570.44;5025836;28;20207;-68
2023/05/25 07:07:57;;;;;;;20.00;12.10;;;;;;;13.20;63.33;96576.56;5018575;28;20184;-67
2023/05/25 07:10:23;;;;;;;13.43;9.80;;;;;;;13.15;63.32;96583.84;5026996;28;20233;-68
2023/05/25 07:12:48;;;;;;;19.30;10.63;;;;;;;13.10;63.60;96580.63;5015335;28;20177;-68
2023/05/25 07:15:15;;;;;;;20.93;10.60;;;;;;;12.85;63.77;96584.50;5007267;28;20179;-68
2023/05/25 07:17:40;;;;;;;17.17;10.60;;;;;;;13.00;63.41;96584.66;5007356;28;20929;-67
2023/05/25 07:20:07;;;;;;;12.97;9.53;;;;;;;13.11;63.46;96579.69;5008814;28;20429;-69
2023/05/25 07:22:33;;;;;;;19.37;9.97;;;;;;;13.00;63.91;96577.59;5012042;28;20251;-69
2023/05/25 07:24:58;;;;;;;19.90;10.23;;;;;;;13.03;63.32;96580.06;5034846;28;20921;-68
2023/05/25 07:27:24;;;;;;;12.93;9.17;;;;;;;13.02;63.31;96580.16;5021333;28;20616;-69
2023/05/25 07:29:50;;;;;;;12.17;9.63;;;;;;;13.09;63.34;96584.19;5010923;28;20204;-67
2023/05/25 07:32:15;;;;;;;15.23;10.40;;;;;;;12.78;64.23;96590.13;5010776;28;20711;-68
2023/05/25 07:34:40;;;;;;;19.23;10.40;;;;;;;12.84;64.35;96588.03;5011507;28;20187;-67
2023/05/25 07:37:06;;;;;;;14.83;10.43;;;;;;;13.07;64.31;96600.06;5011487;28;20607;-67
2023/05/25 07:39:31;;;;;;;12.70;10.40;;;;;;;12.77;65.00;96605.06;5010367;28;20596;-69
2023/05/25 07:41:57;;;;;;;15.83;10.47;;;;;;;12.97;65.57;96597.97;5010491;28;20195;-68
2023/05/25 07:44:22;;;;;;;12.73;10.73;;;;;;;13.18;63.83;96603.94;5009855;28;20168;-68
2023/05/25 07:46:47;;;;;;;18.93;11.37;;;;;;;13.16;63.53;96608.41;5009693;28;20204;-68
2023/05/25 07:49:15;;;;;;;15.53;9.60;;;;;;;13.76;70.38;96606.22;5018800;28;20183;-66
2023/05/25 07:51:44;;;;;;;15.90;10.17;;;;;;;13.43;62.60;96612.31;5030640;28;20190;-68
2023/05/25 07:54:10;;;;;;;13.10;10.87;;;;;;;13.45;63.00;96609.63;5027883;28;20433;-68
2023/05/25 07:56:36;;;;;;;14.07;10.07;;;;;;;13.53;62.33;96602.97;5025011;28;20502;-68
2023/05/25 07:59:01;;;;;;;18.47;11.70;;;;;;;13.53;62.56;96613.53;5028522;28;20482;-67
2023/05/25 08:01:27;;;;;;;24.70;11.87;;;;;;;13.66;62.31;96619.03;5030461;28;20542;-68
2023/05/25 08:03:53;;;;;;;17.60;10.30;;;;;;;13.38;63.11;96608.22;5030237;28;20712;-68
2023/05/25 08:06:18;;;;;;;19.30;11.23;;;;;;;13.71;62.30;96614.34;5030376;28;20430;-68
2023/05/25 08:08:44;;;;;;;17.10;10.70;;;;;;;13.63;62.45;96616.56;5030460;28;20524;-67
2023/05/25 08:11:10;;;;;;;14.77;10.90;;;;;;;13.48;62.77;96617.34;5030292;28;20186;-67
2023/05/25 08:13:36;;;;;;;16.70;12.13;;;;;;;13.57;62.01;96630.06;5029797;28;20183;-67
2023/05/25 08:16:02;;;;;;;16.60;10.60;;;;;;;13.31;62.69;96626.97;5029806;28;20442;-67
2023/05/25 08:18:27;;;;;;;15.27;10.97;;;;;;;13.64;62.31;96620.91;5029892;28;20417;-67
2023/05/25 08:20:52;;;;;;;17.60;12.23;;;;;;;13.87;62.02;96618.84;5029681;28;20306;-67
2023/05/25 08:23:18;;;;;;;13.37;10.33;;;;;;;13.91;61.89;96613.31;5018815;28;20184;-68
2023/05/25 08:25:43;;;;;;;19.73;11.83;;;;;;;13.77;61.96;96618.44;5009821;28;20806;-68
2023/05/25 08:28:09;;;;;;;14.43;10.80;;;;;;;13.84;61.79;96621.63;5010082;28;20176;-67
2023/05/25 08:30:34;;;;;;;17.70;11.53;;;;;;;14.02;61.66;96617.16;5008594;28;20196;-67
2023/05/25 08:33:00;;;;;;;14.97;10.80;;;;;;;14.46;60.58;96619.16;5009951;28;20200;-66
2023/05/25 08:35:25;;;;;;;14.87;11.00;;;;;;;14.38;59.88;96624.81;5009580;28;20200;-68
2023/05/25 08:37:51;;;;;;;20.80;11.40;;;;;;;14.54;59.80;96622.22;5009715;28;20208;-67
2023/05/25 08:40:20;;;;;;;15.20;10.27;;;;;;;14.54;59.55;96620.44;5009785;28;20272;-68
2023/05/25 08:42:45;;;;;;;13.70;10.37;;;;;;;14.50;59.40;96613.56;5009952;28;20179;-68
2023/05/25 08:45:11;;;;;;;17.10;11.67;;;;;;;14.24;60.20;96630.88;5009676;28;20419;-67
2023/05/25 08:47:41;;;;;;;15.90;11.50;;;;;;;14.25;60.73;96627.31;5009696;28;20184;-68
2023/05/25 08:50:08;;;;;;;14.53;11.40;;;;;;;14.55;59.68;96632.72;5024659;28;20179;-69
2023/05/25 08:52:37;;;;;;;14.93;10.50;;;;;;;14.73;59.28;96632.59;5029043;28;20410;-67
2023/05/25 08:55:05;;;;;;;21.10;12.00;;;;;;;14.72;58.74;96633.56;5028748;28;20410;-68
2023/05/25 08:58:06;;;;;;;18.77;11.30;;;;;;;14.73;59.16;96643.16;5029325;28;20457;-67
2023/05/25 09:00:37;;;;;;;20.87;11.20;;;;;;;14.67;59.24;96640.84;5028767;28;20421;-69
2023/05/25 09:03:02;;;;;;;22.93;11.93;;;;;;;14.49;59.56;96638.28;5028949;28;20406;-70
2023/05/25 09:05:28;;;;;;;14.33;12.13;;;;;;;14.79;59.22;96638.41;5027456;28;20987;-67
2023/05/25 09:07:54;;;;;;;19.30;11.23;;;;;;;14.76;59.19;96643.88;5028817;28;20191;-70
2023/05/25 09:10:21;;;;;;;16.27;11.10;;;;;;;15.04;58.44;96642.25;5032662;28;20270;-68
2023/05/25 09:12:47;;;;;;;13.23;11.30;;;;;;;14.77;58.89;96644.72;5038313;28;20408;-69
2023/05/25 09:15:13;;;;;;;19.30;11.90;;;;;;;14.93;58.85;96645.53;5037631;28;20809;-68
2023/05/25 09:17:40;;;;;;;14.10;12.20;;;;;;;14.70;59.27;96649.47;5033380;28;20466;-67
2023/05/25 09:20:08;;;;;;;13.80;11.10;;;;;;;14.75;59.29;96657.16;5029004;28;20186;-68
2023/05/25 09:22:34;;;;;;;14.70;11.67;;;;;;;14.88;58.86;96665.22;5028948;28;21214;-69
2023/05/25 09:25:03;;;;;;;12.73;11.10;;;;;;;14.83;59.15;96649.63;5028214;28;20498;-67
2023/05/25 09:27:28;;;;;;;17.83;12.23;;;;;;;14.93;59.29;96661.41;5028669;28;20925;-67
2023/05/25 09:29:58;;;;;;;14.73;11.30;;;;;;;15.20;58.23;96661.56;5028595;28;20407;-68
2023/05/25 09:32:24;;;;;;;12.43;11.00;;;;;;;15.08;58.64;96656.16;5028485;28;20241;-67
2023/05/25 09:34:50;;;;;;;16.97;11.83;;;;;;;15.29;58.31;96673.41;5028107;28;20414;-68
2023/05/25 09:37:17;;;;;;;15.47;11.63;;;;;;;15.28;58.40;96668.22;5028115;28;20807;-68
2023/05/25 09:39:43;;;;;;;15.00;11.50;;;;;;;15.24;58.01;96672.84;5027965;28;20535;-68
2023/05/25 09:42:10;;;;;;;14.00;12.30;;;;;;;14.99;58.69;96670.75;5027917;28;20406;-68
2023/05/25 09:44:35;;;;;;;19.00;13.80;;;;;;;14.92;59.18;96669.41;5027793;28;20425;-69
2023/05/25 09:47:01;;;;;;;22.57;13.90;;;;;;;14.97;59.30;96669.97;5027626;28;20922;-68
2023/05/25 09:49:27;;;;;;;17.03;11.60;;;;;;;15.27;58.66;96664.72;5018391;28;20168;-68
2023/05/25 09:51:53;;;;;;;21.93;13.37;;;;;;;15.38;58.45;96667.59;5008313;28;20498;-68
2023/05/25 09:54:21;;;;;;;15.33;12.50;;;;;;;15.40;58.68;96672.78;5008126;28;20502;-67
2023/05/25 09:56:47;;;;;;;13.87;11.57;;;;;;;15.41;58.81;96659.47;5007959;28;20467;-68
2023/05/25 09:59:13;;;;;;;13.40;9.93;;;;;;;15.67;58.00;96667.66;5008164;28;20964;-68
2023/05/25 10:01:39;;;;;;;16.60;11.97;;;;;;;15.53;58.47;96664.97;5008133;28;20259;-68
2023/05/25 10:04:05;;;;;;;17.80;11.60;;;;;;;15.49;58.71;96668.75;5007994;28;20182;-68
2023/05/25 10:06:32;;;;;;;15.70;11.93;;;;;;;15.57;58.82;96680.59;5008051;28;20435;-69
2023/05/25 10:08:58;;;;;;;16.50;12.70;;;;;;;15.26;59.06;96670.97;5007817;28;20168;-67
2023/05/25 10:11:25;;;;;;;17.23;13.07;;;;;;;15.34;59.74;96678.44;5007750;28;20414;-67
2023/05/25 10:13:54;;;;;;;15.90;11.87;;;;;;;15.54;59.23;96679.91;5007677;28;20494;-68
2023/05/25 10:16:25;;;;;;;17.00;12.93;;;;;;;15.64;59.24;96683.72;5007685;28;20426;-68
2023/05/25 10:19:04;;;;;;;17.00;11.67;;;;;;;15.54;58.83;96687.84;5007953;28;20415;-69
2023/05/25 10:21:31;;;;;;;15.20;13.57;;;;;;;15.29;59.60;96680.50;5007583;28;20439;-67
2023/05/25 10:24:05;;;;;;;19.50;11.77;;;;;;;15.41;59.93;96691.22;5007486;28;20422;-67
2023/05/25 10:26:35;;;;;;;16.57;12.93;;;;;;;15.59;59.13;96678.69;5007670;28;21007;-68
2023/05/25 10:29:03;;;;;;;14.97;11.40;;;;;;;15.82;58.92;96682.63;5007625;28;20411;-68
2023/05/25 10:31:30;;;;;;;15.00;12.37;;;;;;;15.81;57.91;96688.03;5007616;28;20416;-67
2023/05/25 10:33:57;;;;;;;13.70;11.23;;;;;;;15.80;57.98;96686.31;5007721;28;20454;-67
2023/05/25 10:36:23;;;;;;;12.57;11.27;;;;;;;16.09;57.64;96672.16;5008593;28;20423;-68
2023/05/25 10:38:50;;;;;;;12.73;10.63;;;;;;;16.44;56.60;96673.56;5008356;28;20970;-67
2023/05/25 10:41:18;;;;;;;16.23;11.83;;;;;;;16.41;57.05;96661.34;5008210;28;20459;-68
2023/05/25 10:43:44;;;;;;;17.00;11.67;;;;;;;16.70;56.30;96664.81;5006916;28;20423;-68
2023/05/25 10:46:11;;;;;;;15.47;11.30;;;;;;;17.04;55.63;96670.59;5006546;28;20463;-68
2023/05/25 10:48:37;;;;;;;11.43;10.33;;;;;;;16.84;55.16;96666.63;5009600;28;20865;-67
2023/05/25 10:51:03;;;;;;;17.20;12.00;;;;;;;16.87;55.32;96665.56;5026525;28;20410;-68
2023/05/25 10:53:28;;;;;;;13.50;10.50;;;;;;;16.50;56.16;96663.41;5027036;28;20445;-68
2023/05/25 10:55:53;;;;;;;15.87;12.67;;;;;;;16.61;56.10;96668.06;5032979;28;20183;-68
2023/05/25 10:58:21;;;;;;;15.77;10.90;;;;;;;16.79;55.82;96668.69;5033905;28;20712;-68
2023/05/25 11:00:58;;;;;;;16.03;12.13;;;;;;;16.85;55.73;96675.41;5033288;28;20179;-68
2023/05/25 11:03:43;;;;;;;16.13;10.43;;;;;;;17.00;55.29;96669.09;5033299;28;21038;-69
2023/05/25 11:06:16;;;;;;;12.83;11.20;;;;;;;16.97;54.95;96671.97;5033243;28;20444;-68
2023/05/25 11:08:49;;;;;;;15.87;10.80;;;;;;;17.01;55.43;96668.16;5033483;28;20446;-68
2023/05/25 11:11:15;;;;;;;14.23;10.07;;;;;;;16.77;55.61;96665.28;5033172;28;20425;-68
2023/05/25 11:13:45;;;;;;;16.37;10.67;;;;;;;16.78;55.71;96666.13;5033281;28;20413;-67
2023/05/25 11:16:20;;;;;;;14.40;11.20;;;;;;;16.80;55.78;96661.59;5029058;28;20568;-67
2023/05/25 11:18:58;;;;;;;11.60;10.37;;;;;;;17.00;55.66;96663.78;5022310;28;20836;-68
2023/05/25 11:21:26;;;;;;;12.63;10.03;;;;;;;17.31;54.46;96677.69;5014588;28;20514;-68